Weather Data

Pearl Creek Farm: 8878 N Farm Road 75, Walnut Grove MO 65770

<== Previous Day (Friday 11 Mar 2011) | Next Day (Sunday 13 Mar 2011) ==>

Summary Precipitation Data For Saturday 12 March 2011

ElementValueUnits
Precipitation0"
Notes(none)
SourcePearl Creek Farm

Summary Temperature Data For Saturday 12 March 2011

ElementValueUnits
High Temperature66 oF
Low Temperature39 oF
Average Temperature53 oF
High Humidity73 %
Low Humidity25 %
Average Humidity43 %
SourceSpringfield-Branson National Airport (SGF)

Detail Temperature Data For Saturday 12 March 2011

Date / TimeTemp (F)RH (%)Dew Pt (F)Report Date / TimeSource
2011-03-12 17:52:00 61 26 26.0 2017-12-29 17:00:26.17417 Springfield-Branson National Airport (SGF)
2011-03-12 18:52:00 58 28 25.0 2017-12-29 17:00:26.17417 Springfield-Branson National Airport (SGF)
2011-03-12 19:52:00 55 33 26.0 2017-12-29 17:00:26.17417 Springfield-Branson National Airport (SGF)
2011-03-12 20:52:00 53 37 27.0 2017-12-29 17:00:26.17417 Springfield-Branson National Airport (SGF)
2011-03-12 21:52:00 51 41 28.0 2017-12-29 17:00:26.17417 Springfield-Branson National Airport (SGF)
2011-03-12 22:52:00 51 44 30.0 2017-12-29 17:00:26.17417 Springfield-Branson National Airport (SGF)
2011-03-12 23:52:00 50 50 32.0 2017-12-29 17:00:26.17417 Springfield-Branson National Airport (SGF)
2011-03-12 00:52:00 46 56 31.0 2017-12-29 17:00:26.17417 Springfield-Branson National Airport (SGF)
2011-03-12 01:52:00 41 65 30.0 2017-12-29 17:00:26.17417 Springfield-Branson National Airport (SGF)
2011-03-12 02:52:00 45 56 30.0 2017-12-29 17:00:26.17417 Springfield-Branson National Airport (SGF)
2011-03-12 03:52:00 41 70 32.0 2017-12-29 17:00:26.17417 Springfield-Branson National Airport (SGF)
2011-03-12 04:52:00 43 63 31.0 2017-12-29 17:00:26.17417 Springfield-Branson National Airport (SGF)
2011-03-12 05:52:00 39 73 31.0 2017-12-29 17:00:26.17417 Springfield-Branson National Airport (SGF)
2011-03-12 06:52:00 39 73 31.0 2017-12-29 17:00:26.17417 Springfield-Branson National Airport (SGF)
2011-03-12 07:52:00 48 58 34.0 2017-12-29 17:00:26.17417 Springfield-Branson National Airport (SGF)
2011-03-12 08:52:00 54 38 29.0 2017-12-29 17:00:26.17417 Springfield-Branson National Airport (SGF)
2011-03-12 09:52:00 58 31 27.0 2017-12-29 17:00:26.17417 Springfield-Branson National Airport (SGF)
2011-03-12 10:52:00 60 31 29.0 2017-12-29 17:00:26.17417 Springfield-Branson National Airport (SGF)
2011-03-12 11:52:00 63 27 28.0 2017-12-29 17:00:26.17417 Springfield-Branson National Airport (SGF)
2011-03-12 12:52:00 64 25 27.0 2017-12-29 17:00:26.17417 Springfield-Branson National Airport (SGF)
2011-03-12 13:52:00 66 26 30.0 2017-12-29 17:00:26.17417 Springfield-Branson National Airport (SGF)
2011-03-12 14:52:00 66 25 29.0 2017-12-29 17:00:26.17417 Springfield-Branson National Airport (SGF)
2011-03-12 15:52:00 66 25 29.0 2017-12-29 17:00:26.17417 Springfield-Branson National Airport (SGF)
2011-03-12 16:52:00 64 27 29.0 2017-12-29 17:00:26.17417 Springfield-Branson National Airport (SGF)

A total of 24 rows are displayed.